Anstruther, United Kingdom
Current Conditions -  °F | °C
As of 10:50 PM on Thursday 27 Nov 2014 (Local Time) from EGQL Reporting Station
Haze Haze  
Wind Chill: 10°   Ceiling: 700
Heat Index: 10°   Visibility: 4mi
Dew Point: 10°   Wind: 6mph
Humidity: 100%   Direction: 120°ESE
Pressure: 29.62"   Gusts: NA
Location:  56.22°N, 2.7°W
Report Text: EGQL 272250Z 12005KT 7000 BR BKN007 SCT015 10/10 Q1003 GRN
Loading
Personal Weather Stations






























Interactive Weather Map New forecast layout! Learn more

10-Day Weather Forecast

Advertisements
Track Severe Weather on mobile